createdAt,value
2023-04-09T00:01:55.706Z,100.00
2023-04-09T00:04:58.232Z,100.00
2023-04-09T00:08:01.405Z,100.00
2023-04-09T00:11:04.438Z,100.00
2023-04-09T00:14:07.322Z,100.00
2023-04-09T00:17:10.041Z,100.00
2023-04-09T00:20:13.004Z,100.00
2023-04-09T00:23:15.857Z,100.00
2023-04-09T00:26:18.995Z,100.00
2023-04-09T00:29:22.233Z,100.00
2023-04-09T00:32:25.174Z,99.98
2023-04-09T00:35:27.719Z,100.00
2023-04-09T00:38:31.109Z,100.00
2023-04-09T00:41:33.976Z,100.00
2023-04-09T00:44:36.777Z,100.00
2023-04-09T00:47:39.705Z,100.00
2023-04-09T00:50:43.446Z,100.00
2023-04-09T00:53:46.712Z,100.00
2023-04-09T00:56:49.369Z,100.00
2023-04-09T00:59:52.809Z,100.00
2023-04-09T01:03:01.173Z,100.00
2023-04-09T01:06:11.342Z,100.00
2023-04-09T01:09:41.832Z,100.00
2023-04-09T01:13:00.478Z,100.00
2023-04-09T01:16:04.179Z,100.00
2023-04-09T01:19:26.960Z,100.00
2023-04-09T01:23:06.761Z,100.00
2023-04-09T01:26:30.926Z,100.00
2023-04-09T01:29:39.461Z,100.00
2023-04-09T01:32:43.891Z,100.00
2023-04-09T01:35:49.191Z,100.00
2023-04-09T01:38:53.322Z,100.00
2023-04-09T01:41:58.100Z,100.00
2023-04-09T01:45:01.897Z,100.00
2023-04-09T01:48:05.784Z,100.00
2023-04-09T01:51:08.924Z,100.00
2023-04-09T01:54:11.736Z,100.00
2023-04-09T01:57:14.344Z,100.00
2023-04-09T02:00:17.408Z,100.00
2023-04-09T02:03:26.989Z,100.00
2023-04-09T02:06:48.706Z,100.00
2023-04-09T02:09:54.465Z,100.00
2023-04-09T02:13:00.182Z,100.00
2023-04-09T02:16:04.017Z,100.00
2023-04-09T02:19:06.930Z,100.00
2023-04-09T02:22:09.881Z,100.00
2023-04-09T02:25:13.162Z,100.00
2023-04-09T02:28:16.457Z,100.00
2023-04-09T02:31:19.553Z,100.00
2023-04-09T02:34:22.947Z,100.00
2023-04-09T02:37:25.988Z,100.00
2023-04-09T02:40:28.596Z,100.00
2023-04-09T02:43:31.578Z,100.00
2023-04-09T02:46:34.476Z,100.00
2023-04-09T02:49:37.178Z,100.00
2023-04-09T02:52:40.160Z,100.00
2023-04-09T02:55:42.821Z,100.00
2023-04-09T02:58:45.793Z,100.00
2023-04-09T03:01:48.957Z,100.00
2023-04-09T03:04:53.053Z,100.00
2023-04-09T03:07:57.236Z,100.00
2023-04-09T03:11:00.717Z,100.00
2023-04-09T03:14:03.588Z,100.00
2023-04-09T03:17:06.228Z,100.00
2023-04-09T03:20:09.457Z,100.00
2023-04-09T03:23:14.554Z,100.00
2023-04-09T03:26:21.857Z,100.00
2023-04-09T03:29:26.263Z,100.00
2023-04-09T03:32:29.443Z,100.00
2023-04-09T03:35:32.209Z,100.00
2023-04-09T03:38:36.825Z,100.00
2023-04-09T03:41:45.593Z,100.00
2023-04-09T03:44:54.047Z,100.00
2023-04-09T03:48:09.654Z,100.00
2023-04-09T03:51:14.370Z,100.00
2023-04-09T03:54:23.007Z,100.00
2023-04-09T03:57:27.806Z,100.00
2023-04-09T04:00:31.781Z,100.00
2023-04-09T04:03:54.871Z,100.00
2023-04-09T04:06:59.794Z,100.00
2023-04-09T04:10:09.970Z,100.00
2023-04-09T04:13:15.724Z,100.00
2023-04-09T04:16:26.200Z,100.00
2023-04-09T04:19:30.591Z,100.00
2023-04-09T04:22:34.914Z,100.00
2023-04-09T04:25:42.838Z,100.00
2023-04-09T04:28:49.145Z,100.00
2023-04-09T04:32:03.073Z,100.00
2023-04-09T04:35:11.990Z,100.00
2023-04-09T04:38:15.949Z,100.00
2023-04-09T04:41:18.914Z,100.00
2023-04-09T04:44:28.776Z,100.00
2023-04-09T04:47:51.320Z,100.00
2023-04-09T04:51:05.951Z,100.00
2023-04-09T04:54:16.072Z,100.00
2023-04-09T04:57:25.574Z,100.00
2023-04-09T05:00:29.469Z,100.00
2023-04-09T05:03:36.983Z,100.00
2023-04-09T05:06:52.925Z,100.00
2023-04-09T05:09:58.950Z,100.00
2023-04-09T05:13:04.801Z,100.00
2023-04-09T05:16:20.799Z,100.00
2023-04-09T05:19:29.561Z,100.00
2023-04-09T05:22:36.468Z,100.00
2023-04-09T05:25:40.040Z,100.00
2023-04-09T05:28:48.895Z,100.00
2023-04-09T05:31:55.082Z,100.00
2023-04-09T05:35:11.381Z,100.00
2023-04-09T05:38:18.980Z,100.00
2023-04-09T05:41:28.970Z,100.00
2023-04-09T05:44:53.728Z,100.00
2023-04-09T05:47:57.297Z,100.00
2023-04-09T05:51:01.104Z,100.00
2023-04-09T05:54:04.778Z,100.00
2023-04-09T05:57:11.946Z,99.35
2023-04-09T06:00:18.521Z,99.52
2023-04-09T06:03:23.110Z,100.00
2023-04-09T06:06:26.336Z,98.56
2023-04-09T06:09:29.605Z,100.00
2023-04-09T06:12:35.309Z,98.83
2023-04-09T06:15:39.629Z,99.12
2023-04-09T06:18:42.603Z,99.22
2023-04-09T06:21:45.564Z,98.22
2023-04-09T06:24:48.483Z,98.14
2023-04-09T06:27:51.258Z,98.29
2023-04-09T06:30:55.317Z,96.36
2023-04-09T06:33:58.201Z,96.83
2023-04-09T06:37:00.831Z,94.32
2023-04-09T06:40:03.761Z,97.59
2023-04-09T06:43:06.589Z,96.11
2023-04-09T06:46:20.616Z,96.26
2023-04-09T06:49:23.202Z,96.32
2023-04-09T06:52:26.213Z,96.95
2023-04-09T06:55:29.168Z,97.28
2023-04-09T06:58:31.983Z,96.42
2023-04-09T07:01:35.870Z,96.61
2023-04-09T07:04:38.905Z,94.78
2023-04-09T07:07:41.463Z,95.07
2023-04-09T07:10:47.561Z,93.04
2023-04-09T07:13:50.552Z,91.46
2023-04-09T07:16:53.407Z,94.75
2023-04-09T07:19:56.521Z,92.80
2023-04-09T07:22:59.809Z,94.05
2023-04-09T07:26:04.529Z,91.61
2023-04-09T07:29:08.158Z,90.68
2023-04-09T07:32:10.868Z,90.12
2023-04-09T07:35:13.772Z,90.18
2023-04-09T07:38:16.802Z,89.02
2023-04-09T07:41:19.788Z,86.86
2023-04-09T07:44:22.441Z,86.18
2023-04-09T07:47:25.460Z,89.38
2023-04-09T07:50:28.182Z,85.05
2023-04-09T07:53:31.142Z,86.55
2023-04-09T07:56:33.868Z,86.75
2023-04-09T07:59:36.799Z,84.27
2023-04-09T08:02:39.981Z,84.29
2023-04-09T08:05:43.284Z,81.45
2023-04-09T08:08:46.236Z,82.59
2023-04-09T08:11:49.737Z,78.91
2023-04-09T08:14:52.714Z,81.49
2023-04-09T08:17:55.746Z,81.17
2023-04-09T08:20:58.650Z,80.10
2023-04-09T08:24:04.624Z,76.52
2023-04-09T08:27:07.348Z,75.20
2023-04-09T08:30:10.743Z,79.11
2023-04-09T08:33:14.018Z,76.17
2023-04-09T08:36:16.984Z,75.79
2023-04-09T08:39:20.755Z,76.55
2023-04-09T08:42:26.423Z,76.75
2023-04-09T08:45:29.404Z,75.45
2023-04-09T08:48:32.582Z,76.50
2023-04-09T08:51:35.286Z,76.02
2023-04-09T08:54:38.472Z,73.65
2023-04-09T08:57:41.540Z,73.24
2023-04-09T09:00:44.951Z,77.10
2023-04-09T09:04:04.645Z,71.50
2023-04-09T09:07:07.597Z,72.11
2023-04-09T09:10:10.517Z,70.36
2023-04-09T09:13:24.420Z,68.73
2023-04-09T09:16:27.594Z,68.53
2023-04-09T09:19:33.694Z,69.08
2023-04-09T09:22:55.255Z,67.98
2023-04-09T09:25:58.477Z,70.31
2023-04-09T09:29:04.148Z,67.41
2023-04-09T09:32:13.913Z,67.15
2023-04-09T09:35:16.627Z,62.94
2023-04-09T09:38:19.350Z,63.34
2023-04-09T09:41:22.388Z,67.65
2023-04-09T09:44:33.228Z,64.74
2023-04-09T09:47:36.550Z,65.25
2023-04-09T09:50:42.205Z,63.73
2023-04-09T09:53:47.134Z,62.66
2023-04-09T09:56:53.170Z,62.33
2023-04-09T10:00:04.249Z,58.07
2023-04-09T10:03:20.393Z,59.45
2023-04-09T10:06:23.976Z,55.52
2023-04-09T10:09:28.378Z,57.71
2023-04-09T10:12:31.440Z,53.46
2023-04-09T10:15:34.140Z,56.35
2023-04-09T10:18:37.010Z,56.79
2023-04-09T10:21:54.959Z,51.24
2023-04-09T10:24:58.188Z,50.79
2023-04-09T10:28:02.465Z,52.63
2023-04-09T10:31:08.829Z,55.58
2023-04-09T10:34:11.569Z,51.70
2023-04-09T10:37:17.009Z,52.09
2023-04-09T10:40:22.627Z,49.21
2023-04-09T10:43:25.409Z,47.84
2023-04-09T10:46:34.957Z,49.48
2023-04-09T10:49:39.775Z,50.40
2023-04-09T10:52:42.765Z,51.31
2023-04-09T10:55:50.414Z,51.56
2023-04-09T10:58:54.233Z,46.60
2023-04-09T11:01:57.196Z,49.50
2023-04-09T11:05:18.376Z,51.08
2023-04-09T11:08:22.367Z,49.13
2023-04-09T11:11:28.575Z,51.31
2023-04-09T11:14:33.463Z,48.52
2023-04-09T11:17:37.138Z,47.73
2023-04-09T11:20:40.337Z,52.75
2023-04-09T11:23:51.469Z,52.37
2023-04-09T11:26:54.835Z,54.20
2023-04-09T11:29:57.572Z,54.69
2023-04-09T11:33:01.159Z,57.44
2023-04-09T11:36:06.884Z,57.71
2023-04-09T11:39:09.542Z,58.73
2023-04-09T11:42:15.729Z,56.99
2023-04-09T11:45:19.176Z,57.42
2023-04-09T11:48:24.007Z,57.90
2023-04-09T11:51:27.460Z,55.17
2023-04-09T11:54:36.750Z,56.33
2023-04-09T11:57:48.324Z,54.45
2023-04-09T12:01:01.026Z,57.43
2023-04-09T12:04:05.645Z,54.44
2023-04-09T12:07:09.457Z,54.50
2023-04-09T12:10:12.630Z,55.12
2023-04-09T12:13:16.949Z,56.60
2023-04-09T12:16:21.358Z,57.70
2023-04-09T12:19:26.041Z,58.53
2023-04-09T12:22:28.500Z,57.00
2023-04-09T12:25:32.884Z,57.65
2023-04-09T12:28:35.776Z,57.44
2023-04-09T12:31:38.780Z,55.45
2023-04-09T12:34:41.606Z,56.76
2023-04-09T12:37:44.999Z,56.87
2023-04-09T12:40:48.977Z,57.38
2023-04-09T12:43:52.106Z,58.64
2023-04-09T12:47:00.248Z,57.20
2023-04-09T12:50:04.778Z,56.79
2023-04-09T12:53:07.439Z,57.62
2023-04-09T12:56:10.741Z,55.80
2023-04-09T12:59:13.438Z,56.41
2023-04-09T13:02:16.728Z,55.28
2023-04-09T13:05:19.642Z,54.84
2023-04-09T13:08:22.768Z,54.85
2023-04-09T13:11:25.917Z,56.33
2023-04-09T13:14:28.848Z,56.88
2023-04-09T13:17:31.585Z,56.34
2023-04-09T13:20:35.079Z,54.99
2023-04-09T13:23:37.516Z,55.53
2023-04-09T13:26:42.277Z,57.08
2023-04-09T13:29:45.016Z,55.76
2023-04-09T13:32:48.010Z,55.07
2023-04-09T13:35:51.345Z,55.65
2023-04-09T13:38:54.545Z,55.38
2023-04-09T13:41:58.246Z,53.68
2023-04-09T13:45:01.362Z,54.40
2023-04-09T13:48:05.585Z,58.23
2023-04-09T13:51:08.949Z,54.39
2023-04-09T13:54:11.635Z,52.87
2023-04-09T13:57:14.544Z,53.69
2023-04-09T14:00:17.457Z,51.79
2023-04-09T14:03:20.687Z,50.56
2023-04-09T14:06:23.454Z,54.07
2023-04-09T14:09:26.185Z,53.11
2023-04-09T14:12:29.428Z,53.04
2023-04-09T14:15:32.796Z,52.83
2023-04-09T14:18:35.554Z,56.33
2023-04-09T14:21:39.286Z,53.01
2023-04-09T14:24:41.922Z,53.60
2023-04-09T14:27:45.109Z,53.34
2023-04-09T14:30:48.452Z,53.22
2023-04-09T14:33:51.208Z,50.73
2023-04-09T14:36:53.587Z,52.53
2023-04-09T14:39:56.554Z,52.91
2023-04-09T14:43:00.382Z,56.04
2023-04-09T14:46:04.310Z,54.87
2023-04-09T14:49:07.081Z,53.91
2023-04-09T14:52:10.103Z,55.78
2023-04-09T14:55:12.639Z,55.81
2023-04-09T14:58:15.518Z,55.18
2023-04-09T15:01:18.080Z,56.00
2023-04-09T15:04:21.271Z,57.41
2023-04-09T15:07:25.258Z,55.88
2023-04-09T15:10:28.577Z,56.62
2023-04-09T15:13:31.489Z,55.24
2023-04-09T15:16:37.748Z,57.51
2023-04-09T15:19:40.544Z,57.73
2023-04-09T15:22:43.748Z,59.47
2023-04-09T15:25:48.081Z,58.33
2023-04-09T15:28:51.509Z,57.61
2023-04-09T15:31:54.589Z,58.12
2023-04-09T15:34:57.604Z,60.29
2023-04-09T15:38:00.274Z,61.47
2023-04-09T15:41:03.284Z,59.07
2023-04-09T15:44:05.930Z,59.15
2023-04-09T15:47:08.570Z,59.77
2023-04-09T15:50:11.286Z,59.83
2023-04-09T15:53:17.715Z,62.83
2023-04-09T15:56:20.359Z,62.26
2023-04-09T15:59:23.326Z,61.18
2023-04-09T16:02:26.650Z,62.31
2023-04-09T16:05:29.827Z,62.73
2023-04-09T16:08:32.686Z,65.41
2023-04-09T16:11:36.706Z,65.18
2023-04-09T16:14:41.010Z,66.75
2023-04-09T16:17:43.731Z,63.88
2023-04-09T16:20:46.602Z,63.63
2023-04-09T16:23:50.010Z,64.75
2023-04-09T16:26:52.402Z,65.40
2023-04-09T16:29:55.554Z,65.64
2023-04-09T16:32:58.521Z,66.95
2023-04-09T16:36:01.638Z,66.54
2023-04-09T16:39:05.079Z,66.30
2023-04-09T16:42:07.933Z,67.85
2023-04-09T16:45:11.251Z,67.37
2023-04-09T16:48:14.278Z,67.76
2023-04-09T16:51:17.241Z,67.50
2023-04-09T16:54:20.770Z,68.50
2023-04-09T16:57:23.292Z,69.84
2023-04-09T17:00:27.638Z,71.15
2023-04-09T17:03:30.621Z,70.96
2023-04-09T17:06:33.501Z,73.45
2023-04-09T17:09:36.257Z,72.39
2023-04-09T17:12:39.208Z,71.07
2023-04-09T17:15:42.267Z,72.35
2023-04-09T17:18:45.764Z,73.82
2023-04-09T17:21:48.389Z,75.78
2023-04-09T17:24:52.898Z,74.39
2023-04-09T17:27:55.288Z,76.35
2023-04-09T17:30:58.145Z,78.28
2023-04-09T17:34:00.896Z,77.83
2023-04-09T17:37:03.810Z,77.90
2023-04-09T17:40:06.877Z,79.44
2023-04-09T17:43:10.125Z,78.64
2023-04-09T17:46:12.879Z,80.27
2023-04-09T17:49:15.612Z,79.90
2023-04-09T17:52:18.623Z,80.34
2023-04-09T17:55:23.773Z,81.01
2023-04-09T17:58:27.011Z,83.71
2023-04-09T18:01:29.947Z,82.86
2023-04-09T18:04:34.377Z,83.39
2023-04-09T18:07:38.998Z,82.40
2023-04-09T18:10:42.209Z,82.22
2023-04-09T18:13:45.086Z,83.10
2023-04-09T18:16:47.978Z,85.39
2023-04-09T18:19:53.691Z,84.79
2023-04-09T18:22:56.369Z,84.73
2023-04-09T18:25:59.041Z,84.54
2023-04-09T18:29:01.819Z,84.92
2023-04-09T18:32:05.503Z,86.06
2023-04-09T18:35:08.532Z,87.56
2023-04-09T18:38:11.348Z,86.60
2023-04-09T18:41:21.165Z,87.04
2023-04-09T18:44:23.717Z,86.89
2023-04-09T18:47:26.603Z,85.78
2023-04-09T18:50:29.249Z,87.66
2023-04-09T18:53:31.973Z,87.55
2023-04-09T18:56:34.920Z,86.59
2023-04-09T18:59:37.390Z,87.60
2023-04-09T19:02:40.696Z,88.55
2023-04-09T19:05:43.850Z,88.96
2023-04-09T19:08:48.108Z,89.67
2023-04-09T19:11:51.120Z,90.24
2023-04-09T19:14:57.056Z,90.30
2023-04-09T19:18:00.027Z,91.73
2023-04-09T19:21:02.829Z,92.29
2023-04-09T19:24:06.233Z,90.42
2023-04-09T19:27:10.312Z,90.21
2023-04-09T19:30:13.115Z,89.53
2023-04-09T19:33:16.410Z,89.29
2023-04-09T19:36:19.216Z,89.38
2023-04-09T19:39:22.327Z,89.35
2023-04-09T19:42:25.544Z,89.75
2023-04-09T19:45:28.474Z,90.03
2023-04-09T19:48:31.432Z,90.69
2023-04-09T19:51:34.571Z,90.08
2023-04-09T19:54:37.680Z,90.87
2023-04-09T19:57:41.121Z,93.00
2023-04-09T20:00:43.703Z,90.98
2023-04-09T20:03:47.240Z,90.02
2023-04-09T20:06:51.591Z,89.94
2023-04-09T20:09:55.030Z,91.86
2023-04-09T20:12:58.120Z,89.59
2023-04-09T20:16:01.335Z,90.01
2023-04-09T20:19:04.496Z,92.39
2023-04-09T20:22:07.346Z,92.29
2023-04-09T20:25:12.536Z,89.85
2023-04-09T20:28:15.504Z,90.73
2023-04-09T20:31:18.033Z,89.66
2023-04-09T20:34:26.786Z,90.95
2023-04-09T20:37:29.622Z,90.42
2023-04-09T20:40:35.467Z,90.75
2023-04-09T20:43:38.524Z,91.29
2023-04-09T20:46:41.326Z,90.40
2023-04-09T20:49:45.871Z,89.86
2023-04-09T20:52:49.978Z,90.99
2023-04-09T20:55:53.433Z,90.41
2023-04-09T20:58:57.854Z,91.14
2023-04-09T21:02:00.645Z,90.95
2023-04-09T21:05:15.685Z,92.14
2023-04-09T21:08:24.683Z,91.14
2023-04-09T21:11:27.749Z,90.32
2023-04-09T21:14:31.525Z,91.91
2023-04-09T21:17:34.301Z,90.02
2023-04-09T21:20:37.449Z,91.18
2023-04-09T21:23:41.786Z,90.85
2023-04-09T21:26:51.724Z,92.21
2023-04-09T21:29:55.538Z,91.83
2023-04-09T21:33:01.102Z,91.32
2023-04-09T21:36:04.956Z,91.64
2023-04-09T21:39:07.916Z,91.80
2023-04-09T21:42:15.119Z,92.04
2023-04-09T21:45:18.174Z,92.91
2023-04-09T21:48:21.694Z,92.30
2023-04-09T21:51:25.023Z,91.85
2023-04-09T21:54:28.191Z,92.16
2023-04-09T21:57:30.822Z,91.42
2023-04-09T22:00:33.798Z,91.23
2023-04-09T22:03:36.450Z,91.54
2023-04-09T22:06:40.544Z,92.60
2023-04-09T22:09:42.931Z,92.36
2023-04-09T22:12:46.510Z,92.36
2023-04-09T22:15:49.327Z,92.38
2023-04-09T22:18:52.948Z,92.30
2023-04-09T22:21:56.353Z,92.19
2023-04-09T22:24:59.001Z,92.35
2023-04-09T22:28:02.009Z,94.03
2023-04-09T22:31:05.462Z,94.46
2023-04-09T22:34:20.163Z,94.41
2023-04-09T22:37:24.619Z,93.69
2023-04-09T22:40:27.328Z,94.88
2023-04-09T22:43:30.404Z,94.14
2023-04-09T22:46:34.640Z,94.12
2023-04-09T22:49:37.819Z,93.21
2023-04-09T22:52:40.867Z,95.42
2023-04-09T22:55:43.589Z,94.16
2023-04-09T22:58:46.325Z,94.79
2023-04-09T23:01:50.111Z,95.49
2023-04-09T23:04:52.848Z,95.05
2023-04-09T23:07:56.097Z,95.54
2023-04-09T23:10:58.656Z,94.28
2023-04-09T23:14:01.744Z,94.17
2023-04-09T23:17:04.464Z,94.09
2023-04-09T23:20:08.960Z,94.40
2023-04-09T23:23:12.344Z,94.34
2023-04-09T23:26:15.024Z,93.93
2023-04-09T23:29:18.093Z,93.56
2023-04-09T23:32:22.001Z,93.67
2023-04-09T23:35:24.538Z,92.77
2023-04-09T23:38:27.798Z,93.18
2023-04-09T23:41:31.794Z,93.11
2023-04-09T23:44:36.522Z,94.37
2023-04-09T23:47:39.431Z,93.31
2023-04-09T23:50:42.532Z,93.18
2023-04-09T23:53:46.670Z,94.48
2023-04-09T23:56:49.467Z,93.75
2023-04-09T23:59:52.377Z,94.66
